createdAt,value
2023-03-06T00:04:01.393Z,38.10
2023-03-06T00:09:23.269Z,34.40
2023-03-06T00:14:45.393Z,29.40
2023-03-06T00:20:11.133Z,27.90
2023-03-06T00:25:36.877Z,29.40
2023-03-06T00:30:58.914Z,31.50
2023-03-06T00:36:20.736Z,45.20
2023-03-06T00:41:44.429Z,36.30
2023-03-06T00:47:08.006Z,55.60
2023-03-06T00:52:29.637Z,41.00
2023-03-06T00:57:51.768Z,41.30
2023-03-06T01:03:13.796Z,36.80
2023-03-06T01:08:35.918Z,39.40
2023-03-06T01:13:58.151Z,31.80
2023-03-06T01:19:20.079Z,34.40
2023-03-06T01:24:42.009Z,29.60
2023-03-06T01:30:06.360Z,36.30
2023-03-06T01:35:28.177Z,39.00
2023-03-06T01:40:50.017Z,39.00
2023-03-06T01:46:20.925Z,41.60
2023-03-06T01:51:53.141Z,36.10
2023-03-06T01:57:18.573Z,39.00
2023-03-06T02:02:42.689Z,43.00
2023-03-06T02:08:06.053Z,44.30
2023-03-06T02:13:27.983Z,47.30
2023-03-06T02:18:50.617Z,42.40
2023-03-06T02:24:32.543Z,50.80
2023-03-06T02:29:54.755Z,43.20
2023-03-06T02:35:25.653Z,42.40
2023-03-06T02:40:50.650Z,41.70
2023-03-06T02:46:13.427Z,33.80
2023-03-06T02:51:36.203Z,33.90
2023-03-06T02:56:58.134Z,37.80
2023-03-06T03:02:20.672Z,26.50
2023-03-06T03:07:43.014Z,27.60
2023-03-06T03:13:05.130Z,29.10
2023-03-06T03:18:27.851Z,38.00
2023-03-06T03:23:49.590Z,33.80
2023-03-06T03:29:11.440Z,30.30
2023-03-06T03:34:33.544Z,38.80
2023-03-06T03:39:56.675Z,23.70
2023-03-06T03:45:18.708Z,32.10
2023-03-06T03:50:40.636Z,39.30
2023-03-06T03:56:02.528Z,42.00
2023-03-06T04:01:25.508Z,78.50
2023-03-06T04:06:48.111Z,66.80
2023-03-06T04:12:10.862Z,73.50
2023-03-06T04:17:35.147Z,78.40
2023-03-06T04:22:57.530Z,71.90
2023-03-06T04:28:19.958Z,59.60
2023-03-06T04:33:42.501Z,51.50
2023-03-06T04:39:05.162Z,53.50
2023-03-06T04:44:27.656Z,53.20
2023-03-06T04:49:49.418Z,59.70
2023-03-06T04:55:14.231Z,66.00
2023-03-06T05:00:36.055Z,46.20
2023-03-06T05:05:58.085Z,39.80
2023-03-06T05:11:20.309Z,49.10
2023-03-06T05:16:42.183Z,42.20
2023-03-06T05:22:04.166Z,33.70
2023-03-06T05:27:27.993Z,30.40
2023-03-06T05:32:50.206Z,40.10
2023-03-06T05:38:12.264Z,41.60
2023-03-06T05:43:34.399Z,35.40
2023-03-06T05:48:58.038Z,37.20
2023-03-06T05:54:19.877Z,40.30
2023-03-06T05:59:42.122Z,40.90
2023-03-06T06:05:05.650Z,42.80
2023-03-06T06:10:27.557Z,48.80
2023-03-06T06:15:50.237Z,47.70
2023-03-06T06:21:14.519Z,48.40
2023-03-06T06:26:36.250Z,56.60
2023-03-06T06:31:58.478Z,41.40
2023-03-06T06:37:20.209Z,44.40
2023-03-06T06:42:42.893Z,43.50
2023-03-06T06:48:04.917Z,47.70
2023-03-06T06:53:28.037Z,44.90
2023-03-06T06:58:57.421Z,42.40
2023-03-06T07:04:23.289Z,44.50
2023-03-06T07:09:45.634Z,43.30
2023-03-06T07:15:09.223Z,41.30
2023-03-06T07:20:34.105Z,38.10
2023-03-06T07:25:55.969Z,34.90
2023-03-06T07:31:17.916Z,35.20
2023-03-06T07:36:40.595Z,35.50
2023-03-06T07:42:02.641Z,36.60
2023-03-06T07:47:24.465Z,34.40
2023-03-06T07:52:47.114Z,34.10
2023-03-06T07:58:09.134Z,29.50
2023-03-06T08:03:31.535Z,29.50
2023-03-06T08:08:54.900Z,36.10
2023-03-06T08:14:16.630Z,50.20
2023-03-06T08:19:38.951Z,48.00
2023-03-06T08:25:00.943Z,48.50
2023-03-06T08:30:23.123Z,45.40
2023-03-06T08:35:44.911Z,32.80
2023-03-06T08:41:06.756Z,26.60
2023-03-06T08:46:30.096Z,33.30
2023-03-06T08:51:52.026Z,44.80
2023-03-06T08:57:13.954Z,29.40
2023-03-06T09:02:37.445Z,28.10
2023-03-06T09:08:00.632Z,30.50
2023-03-06T09:13:22.952Z,27.20
2023-03-06T09:18:44.731Z,21.50
2023-03-06T09:24:06.813Z,37.00
2023-03-06T09:29:29.246Z,30.20
2023-03-06T09:34:51.435Z,48.00
2023-03-06T09:40:34.487Z,33.60
2023-03-06T09:45:57.930Z,26.20
2023-03-06T09:51:23.506Z,26.30
2023-03-06T09:56:50.704Z,22.70
2023-03-06T10:02:16.640Z,23.50
2023-03-06T10:08:11.092Z,23.80
2023-03-06T10:13:38.250Z,23.60
2023-03-06T10:19:07.268Z,25.30
2023-03-06T10:25:04.337Z,26.10
2023-03-06T10:30:40.719Z,25.80
2023-03-06T10:41:35.925Z,20.90
2023-03-06T10:46:57.857Z,21.50
2023-03-06T10:52:22.721Z,29.10
2023-03-06T10:57:44.427Z,25.40
2023-03-06T11:03:18.093Z,28.50
2023-03-06T11:08:41.346Z,18.10
2023-03-06T11:14:03.154Z,24.30
2023-03-06T11:19:28.292Z,17.70
2023-03-06T11:24:52.434Z,14.50
2023-03-06T11:30:24.052Z,11.90
2023-03-06T11:36:15.935Z,13.50
2023-03-06T11:41:40.375Z,19.60
2023-03-06T11:47:06.614Z,24.80
2023-03-06T11:52:41.786Z,17.10
2023-03-06T11:58:40.529Z,11.50
2023-03-06T12:04:28.250Z,10.90
2023-03-06T12:09:58.182Z,13.00
2023-03-06T12:15:24.068Z,15.10
2023-03-06T12:20:51.857Z,13.60
2023-03-06T12:26:27.093Z,14.60
2023-03-06T12:32:00.994Z,13.30
2023-03-06T12:37:51.101Z,22.20
2023-03-06T12:43:34.298Z,20.70
2023-03-06T12:49:11.143Z,14.80
2023-03-06T12:54:36.520Z,14.70
2023-03-06T12:59:58.186Z,19.90
2023-03-06T13:05:30.837Z,12.50
2023-03-06T13:11:18.964Z,20.80
2023-03-06T13:16:41.103Z,12.00
2023-03-06T13:22:03.302Z,19.30
2023-03-06T13:27:54.843Z,19.80
2023-03-06T13:33:22.651Z,22.40
2023-03-06T13:38:44.409Z,15.60
2023-03-06T13:44:26.038Z,11.50
2023-03-06T13:49:48.342Z,14.30
2023-03-06T13:55:25.516Z,16.80
2023-03-06T14:01:02.498Z,14.50
2023-03-06T14:06:41.988Z,9.10
2023-03-06T14:12:15.786Z,9.90
2023-03-06T14:17:39.354Z,10.70
2023-03-06T14:23:23.672Z,8.40
2023-03-06T14:28:55.904Z,11.60
2023-03-06T14:34:21.721Z,21.10
2023-03-06T14:39:44.343Z,17.20
2023-03-06T14:45:16.011Z,15.30
2023-03-06T14:50:40.958Z,14.70
2023-03-06T14:56:06.371Z,20.60
2023-03-06T15:01:31.196Z,19.00
2023-03-06T15:06:54.390Z,17.80
2023-03-06T15:12:20.108Z,20.20
2023-03-06T15:17:46.957Z,41.90
2023-03-06T15:23:26.351Z,28.60
2023-03-06T15:29:09.050Z,52.60
2023-03-06T15:34:31.874Z,41.60
2023-03-06T15:40:09.257Z,31.60
2023-03-06T15:45:32.262Z,21.70
2023-03-06T15:50:55.615Z,25.60
2023-03-06T15:56:32.014Z,24.80
2023-03-06T16:01:54.644Z,36.50
2023-03-06T16:07:16.776Z,31.80
2023-03-06T16:12:38.905Z,36.30
2023-03-06T16:18:00.831Z,31.40
2023-03-06T16:23:22.665Z,36.30
2023-03-06T16:28:45.868Z,54.20
2023-03-06T16:34:08.018Z,38.20
2023-03-06T16:39:29.747Z,37.50
2023-03-06T16:44:51.701Z,68.70
2023-03-06T16:50:35.099Z,63.10
2023-03-06T16:55:57.113Z,52.20
2023-03-06T17:01:20.287Z,59.40
2023-03-06T17:06:43.380Z,66.00
2023-03-06T17:12:05.505Z,61.80
2023-03-06T17:17:28.145Z,62.70
2023-03-06T17:22:53.181Z,59.00
2023-03-06T17:28:14.816Z,59.30
2023-03-06T17:33:36.943Z,49.40
2023-03-06T17:39:00.178Z,55.80
2023-03-06T17:44:21.962Z,50.50
2023-03-06T17:49:44.241Z,53.70
2023-03-06T17:55:07.266Z,60.60
2023-03-06T18:00:29.503Z,33.30
2023-03-06T18:06:01.258Z,24.50
2023-03-06T18:11:22.888Z,17.50
2023-03-06T18:16:45.121Z,21.00
2023-03-06T18:22:07.549Z,44.80
2023-03-06T18:27:32.788Z,41.50
2023-03-06T18:32:54.918Z,50.50
2023-03-06T18:38:16.848Z,45.30
2023-03-06T18:43:38.897Z,43.20
2023-03-06T18:49:01.218Z,34.80
2023-03-06T18:54:32.573Z,33.30
2023-03-06T18:59:55.484Z,57.90
2023-03-06T19:05:17.520Z,46.00
2023-03-06T19:10:42.002Z,67.50
2023-03-06T19:16:04.871Z,103.20
2023-03-06T19:21:28.253Z,103.40
2023-03-06T19:26:50.182Z,110.30
2023-03-06T19:32:11.907Z,66.10
2023-03-06T19:37:34.614Z,73.80
2023-03-06T19:42:59.298Z,91.00
2023-03-06T19:48:22.736Z,106.70
2023-03-06T19:53:45.258Z,109.80
2023-03-06T19:59:07.037Z,102.50
2023-03-06T20:04:32.976Z,80.50
2023-03-06T20:10:00.478Z,86.30
2023-03-06T20:15:23.197Z,100.30
2023-03-06T20:20:44.719Z,87.70
2023-03-06T20:26:09.740Z,76.20
2023-03-06T20:31:31.751Z,57.60
2023-03-06T20:36:53.535Z,61.00
2023-03-06T20:42:15.467Z,45.40
2023-03-06T20:47:37.990Z,42.00
2023-03-06T20:52:59.508Z,41.70
2023-03-06T20:58:26.863Z,39.30
2023-03-06T21:03:49.193Z,40.50
2023-03-06T21:09:11.603Z,34.80
2023-03-06T21:14:33.444Z,36.80
2023-03-06T21:19:55.075Z,34.70
2023-03-06T21:25:17.004Z,36.20
2023-03-06T21:30:38.735Z,30.10
2023-03-06T21:36:01.104Z,32.90
2023-03-06T21:41:29.017Z,47.40
2023-03-06T21:46:50.645Z,31.70
2023-03-06T21:52:12.684Z,37.70
2023-03-06T21:57:34.839Z,36.90
2023-03-06T22:02:57.333Z,45.50
2023-03-06T22:08:21.446Z,47.20
2023-03-06T22:13:43.904Z,44.90
2023-03-06T22:19:06.133Z,49.20
2023-03-06T22:24:28.063Z,57.20
2023-03-06T22:29:49.760Z,49.50
2023-03-06T22:35:12.698Z,69.70
2023-03-06T22:40:34.868Z,67.40
2023-03-06T22:46:04.823Z,51.10
2023-03-06T22:51:27.822Z,58.40
2023-03-06T22:56:49.773Z,49.10
2023-03-06T23:02:14.316Z,72.50
2023-03-06T23:07:36.251Z,52.50
2023-03-06T23:12:58.023Z,81.10
2023-03-06T23:18:39.469Z,93.30
2023-03-06T23:24:20.264Z,85.90
2023-03-06T23:29:42.168Z,82.80
2023-03-06T23:35:05.927Z,88.00
2023-03-06T23:40:27.556Z,81.50
2023-03-06T23:45:54.076Z,73.60
2023-03-06T23:51:21.442Z,65.90
2023-03-06T23:56:45.507Z,56.70
